sensor_id;sensor_type;location;lat;lon;timestamp;pressure;altitude;pressure_sealevel;temperature;humidity
4570;BME280;2297;51.442;6.996;2022-10-15T00:01:06;99477.88;;;14.86;69.76
4570;BME280;2297;51.442;6.996;2022-10-15T00:03:34;99473.25;;;14.90;69.69
4570;BME280;2297;51.442;6.996;2022-10-15T00:06:03;99472.00;;;14.79;69.57
4570;BME280;2297;51.442;6.996;2022-10-15T00:08:30;99466.09;;;14.74;70.01
4570;BME280;2297;51.442;6.996;2022-10-15T00:11:01;99469.03;;;14.68;69.96
4570;BME280;2297;51.442;6.996;2022-10-15T00:13:28;99465.38;;;14.71;69.85
4570;BME280;2297;51.442;6.996;2022-10-15T00:15:56;99465.59;;;14.66;70.17
4570;BME280;2297;51.442;6.996;2022-10-15T00:18:22;99464.34;;;14.73;69.48
4570;BME280;2297;51.442;6.996;2022-10-15T00:20:49;99460.63;;;14.60;69.99
4570;BME280;2297;51.442;6.996;2022-10-15T00:23:16;99469.22;;;14.65;69.82
4570;BME280;2297;51.442;6.996;2022-10-15T00:25:42;99461.84;;;14.70;69.65
4570;BME280;2297;51.442;6.996;2022-10-15T00:28:09;99469.91;;;14.69;69.38
4570;BME280;2297;51.442;6.996;2022-10-15T00:30:35;99460.69;;;14.58;69.59
4570;BME280;2297;51.442;6.996;2022-10-15T00:33:03;99451.22;;;14.53;69.48
4570;BME280;2297;51.442;6.996;2022-10-15T00:35:30;99451.84;;;14.58;69.55
4570;BME280;2297;51.442;6.996;2022-10-15T00:37:57;99459.75;;;14.59;69.37
4570;BME280;2297;51.442;6.996;2022-10-15T00:40:24;99456.53;;;14.53;69.58
4570;BME280;2297;51.442;6.996;2022-10-15T00:42:50;99462.47;;;14.58;69.18
4570;BME280;2297;51.442;6.996;2022-10-15T00:45:17;99450.28;;;14.54;69.63
4570;BME280;2297;51.442;6.996;2022-10-15T00:47:46;99452.00;;;14.55;69.33
4570;BME280;2297;51.442;6.996;2022-10-15T00:50:17;99452.78;;;14.39;69.70
4570;BME280;2297;51.442;6.996;2022-10-15T00:52:52;99454.50;;;14.40;69.88
4570;BME280;2297;51.442;6.996;2022-10-15T00:55:25;99456.25;;;14.41;69.59
4570;BME280;2297;51.442;6.996;2022-10-15T00:57:54;99456.38;;;14.38;69.85
4570;BME280;2297;51.442;6.996;2022-10-15T01:00:21;99454.59;;;14.39;69.84
4570;BME280;2297;51.442;6.996;2022-10-15T01:02:53;99456.88;;;14.46;69.50
4570;BME280;2297;51.442;6.996;2022-10-15T01:05:21;99459.81;;;14.40;69.53
4570;BME280;2297;51.442;6.996;2022-10-15T01:07:51;99456.84;;;14.29;69.88
4570;BME280;2297;51.442;6.996;2022-10-15T01:10:19;99458.41;;;14.33;69.66
4570;BME280;2297;51.442;6.996;2022-10-15T01:12:57;99454.50;;;14.40;69.21
4570;BME280;2297;51.442;6.996;2022-10-15T01:15:34;99457.16;;;14.23;69.76
4570;BME280;2297;51.442;6.996;2022-10-15T01:18:10;99461.22;;;14.30;69.60
4570;BME280;2297;51.442;6.996;2022-10-15T01:20:57;99460.81;;;14.20;70.03
4570;BME280;2297;51.442;6.996;2022-10-15T01:27:14;99462.00;;;14.32;69.58
4570;BME280;2297;51.442;6.996;2022-10-15T01:29:57;99459.34;;;14.32;69.41
4570;BME280;2297;51.442;6.996;2022-10-15T01:32:33;99456.84;;;14.29;69.37
4570;BME280;2297;51.442;6.996;2022-10-15T01:35:06;99463.69;;;14.33;69.13
4570;BME280;2297;51.442;6.996;2022-10-15T01:37:40;99465.69;;;14.29;69.24
4570;BME280;2297;51.442;6.996;2022-10-15T01:40:13;99473.31;;;14.36;69.08
4570;BME280;2297;51.442;6.996;2022-10-15T01:42:47;99470.06;;;14.11;69.40
4570;BME280;2297;51.442;6.996;2022-10-15T01:45:20;99478.66;;;14.17;69.19
4570;BME280;2297;51.442;6.996;2022-10-15T01:47:53;99474.78;;;14.24;69.23
4570;BME280;2297;51.442;6.996;2022-10-15T01:50:24;99465.88;;;14.25;69.12
4570;BME280;2297;51.442;6.996;2022-10-15T01:52:53;99473.22;;;14.20;69.02
4570;BME280;2297;51.442;6.996;2022-10-15T01:55:22;99473.09;;;14.23;69.23
4570;BME280;2297;51.442;6.996;2022-10-15T01:57:51;99462.31;;;14.26;68.99
4570;BME280;2297;51.442;6.996;2022-10-15T02:00:20;99464.75;;;14.30;68.98
4570;BME280;2297;51.442;6.996;2022-10-15T02:02:47;99460.28;;;14.31;69.23
4570;BME280;2297;51.442;6.996;2022-10-15T02:05:20;99461.69;;;14.38;68.71
4570;BME280;2297;51.442;6.996;2022-10-15T02:07:56;99452.03;;;14.37;68.56
4570;BME280;2297;51.442;6.996;2022-10-15T02:10:27;99455.59;;;14.17;69.09
4570;BME280;2297;51.442;6.996;2022-10-15T02:13:04;99452.63;;;14.25;68.81
4570;BME280;2297;51.442;6.996;2022-10-15T02:15:43;99450.50;;;14.32;68.95
4570;BME280;2297;51.442;6.996;2022-10-15T02:18:15;99441.53;;;14.34;68.91
4570;BME280;2297;51.442;6.996;2022-10-15T02:20:50;99445.81;;;14.37;68.76
4570;BME280;2297;51.442;6.996;2022-10-15T02:23:22;99449.09;;;14.24;69.01
4570;BME280;2297;51.442;6.996;2022-10-15T02:25:51;99453.25;;;14.30;68.70
4570;BME280;2297;51.442;6.996;2022-10-15T02:28:19;99446.97;;;14.13;69.28
4570;BME280;2297;51.442;6.996;2022-10-15T02:30:49;99446.31;;;14.08;69.47
4570;BME280;2297;51.442;6.996;2022-10-15T02:33:19;99443.66;;;14.08;69.42
4570;BME280;2297;51.442;6.996;2022-10-15T02:35:50;99439.84;;;14.14;69.57
4570;BME280;2297;51.442;6.996;2022-10-15T02:38:19;99439.66;;;14.19;69.15
4570;BME280;2297;51.442;6.996;2022-10-15T02:40:47;99435.91;;;14.23;69.10
4570;BME280;2297;51.442;6.996;2022-10-15T02:43:18;99436.53;;;14.28;68.79
4570;BME280;2297;51.442;6.996;2022-10-15T02:45:45;99443.28;;;14.16;68.87
4570;BME280;2297;51.442;6.996;2022-10-15T02:48:30;99447.53;;;14.20;68.96
4570;BME280;2297;51.442;6.996;2022-10-15T02:50:58;99461.31;;;14.09;68.87
4570;BME280;2297;51.442;6.996;2022-10-15T02:53:24;99463.03;;;14.10;69.02
4570;BME280;2297;51.442;6.996;2022-10-15T02:55:51;99464.34;;;14.02;69.21
4570;BME280;2297;51.442;6.996;2022-10-15T02:58:17;99459.44;;;14.11;69.18
4570;BME280;2297;51.442;6.996;2022-10-15T03:00:44;99446.97;;;14.13;69.11
4570;BME280;2297;51.442;6.996;2022-10-15T03:03:11;99443.69;;;13.89;69.49
4570;BME280;2297;51.442;6.996;2022-10-15T03:05:37;99444.13;;;13.99;69.24
4570;BME280;2297;51.442;6.996;2022-10-15T03:08:05;99445.13;;;13.96;69.16
4570;BME280;2297;51.442;6.996;2022-10-15T03:10:32;99437.94;;;13.98;69.20
4570;BME280;2297;51.442;6.996;2022-10-15T03:13:01;99438.38;;;13.89;69.37
4570;BME280;2297;51.442;6.996;2022-10-15T03:15:28;99446.41;;;13.88;69.40
4570;BME280;2297;51.442;6.996;2022-10-15T03:17:55;99441.84;;;13.91;69.25
4570;BME280;2297;51.442;6.996;2022-10-15T03:20:22;99439.75;;;13.98;69.15
4570;BME280;2297;51.442;6.996;2022-10-15T03:22:48;99436.00;;;14.02;68.94
4570;BME280;2297;51.442;6.996;2022-10-15T03:25:16;99440.81;;;13.94;69.02
4570;BME280;2297;51.442;6.996;2022-10-15T03:27:43;99436.16;;;13.99;68.82
4570;BME280;2297;51.442;6.996;2022-10-15T03:30:10;99431.78;;;13.98;68.96
4570;BME280;2297;51.442;6.996;2022-10-15T03:32:37;99419.59;;;13.94;69.00
4570;BME280;2297;51.442;6.996;2022-10-15T03:35:04;99414.84;;;14.01;69.36
4570;BME280;2297;51.442;6.996;2022-10-15T03:40:54;99417.97;;;14.09;68.33
4570;BME280;2297;51.442;6.996;2022-10-15T03:43:22;99413.66;;;14.06;68.64
4570;BME280;2297;51.442;6.996;2022-10-15T03:45:49;99408.22;;;14.09;68.32
4570;BME280;2297;51.442;6.996;2022-10-15T03:48:15;99393.78;;;13.97;68.67
4570;BME280;2297;51.442;6.996;2022-10-15T03:50:42;99394.78;;;13.95;68.69
4570;BME280;2297;51.442;6.996;2022-10-15T03:53:08;99399.38;;;13.91;68.73
4570;BME280;2297;51.442;6.996;2022-10-15T03:55:35;99412.25;;;13.82;69.02
4570;BME280;2297;51.442;6.996;2022-10-15T03:58:03;99405.97;;;13.83;69.21
4570;BME280;2297;51.442;6.996;2022-10-15T04:00:30;99406.31;;;13.94;68.88
4570;BME280;2297;51.442;6.996;2022-10-15T04:02:56;99403.22;;;14.03;68.43
4570;BME280;2297;51.442;6.996;2022-10-15T04:05:23;99401.38;;;13.86;68.75
4570;BME280;2297;51.442;6.996;2022-10-15T04:07:49;99402.22;;;13.87;69.08
4570;BME280;2297;51.442;6.996;2022-10-15T04:10:16;99408.25;;;13.90;68.73
4570;BME280;2297;51.442;6.996;2022-10-15T04:12:43;99408.41;;;13.87;68.70
4570;BME280;2297;51.442;6.996;2022-10-15T04:15:11;99419.88;;;13.88;69.16
4570;BME280;2297;51.442;6.996;2022-10-15T04:17:37;99422.06;;;13.79;69.20
4570;BME280;2297;51.442;6.996;2022-10-15T04:20:04;99421.78;;;13.86;69.00
4570;BME280;2297;51.442;6.996;2022-10-15T04:22:31;99426.91;;;13.89;68.76
4570;BME280;2297;51.442;6.996;2022-10-15T04:24:58;99426.72;;;13.74;69.32
4570;BME280;2297;51.442;6.996;2022-10-15T04:27:24;99422.63;;;13.86;69.13
4570;BME280;2297;51.442;6.996;2022-10-15T04:29:51;99408.25;;;13.90;69.00
4570;BME280;2297;51.442;6.996;2022-10-15T04:35:40;99421.44;;;13.92;68.95
4570;BME280;2297;51.442;6.996;2022-10-15T04:38:07;99413.56;;;13.90;69.03
4570;BME280;2297;51.442;6.996;2022-10-15T04:40:34;99417.41;;;14.02;68.43
4570;BME280;2297;51.442;6.996;2022-10-15T04:43:00;99426.00;;;14.07;68.26
4570;BME280;2297;51.442;6.996;2022-10-15T04:45:27;99429.91;;;14.00;68.58
4570;BME280;2297;51.442;6.996;2022-10-15T04:47:53;99432.38;;;13.86;69.05
4570;BME280;2297;51.442;6.996;2022-10-15T04:50:21;99426.34;;;13.82;69.26
4570;BME280;2297;51.442;6.996;2022-10-15T04:52:49;99426.44;;;13.80;69.07
4570;BME280;2297;51.442;6.996;2022-10-15T04:55:16;99434.84;;;13.71;69.63
4570;BME280;2297;51.442;6.996;2022-10-15T04:57:43;99429.69;;;13.68;69.88
4570;BME280;2297;51.442;6.996;2022-10-15T05:00:10;99422.06;;;13.79;69.45
4570;BME280;2297;51.442;6.996;2022-10-15T05:02:40;99424.56;;;13.83;69.53
4570;BME280;2297;51.442;6.996;2022-10-15T05:05:08;99422.66;;;13.67;70.38
4570;BME280;2297;51.442;6.996;2022-10-15T05:07:34;99425.38;;;13.46;71.23
4570;BME280;2297;51.442;6.996;2022-10-15T05:10:03;99421.78;;;13.67;70.99
4570;BME280;2297;51.442;6.996;2022-10-15T05:12:30;99408.91;;;13.59;71.11
4570;BME280;2297;51.442;6.996;2022-10-15T05:14:56;99411.59;;;13.57;70.92
4570;BME280;2297;51.442;6.996;2022-10-15T05:17:23;99409.59;;;13.62;71.05
4570;BME280;2297;51.442;6.996;2022-10-15T05:19:49;99407.97;;;13.41;71.69
4570;BME280;2297;51.442;6.996;2022-10-15T05:22:17;99399.16;;;13.40;71.87
4570;BME280;2297;51.442;6.996;2022-10-15T05:24:44;99406.63;;;13.51;71.23
4570;BME280;2297;51.442;6.996;2022-10-15T05:27:12;99403.09;;;13.51;71.36
4570;BME280;2297;51.442;6.996;2022-10-15T05:29:38;99396.69;;;13.55;71.15
4570;BME280;2297;51.442;6.996;2022-10-15T05:32:05;99396.69;;;13.55;71.24
4570;BME280;2297;51.442;6.996;2022-10-15T05:34:40;99399.59;;;13.50;71.28
4570;BME280;2297;51.442;6.996;2022-10-15T05:37:07;99403.16;;;13.49;71.37
4570;BME280;2297;51.442;6.996;2022-10-15T05:39:34;99414.78;;;13.27;72.07
4570;BME280;2297;51.442;6.996;2022-10-15T05:42:03;99415.50;;;13.31;71.95
4570;BME280;2297;51.442;6.996;2022-10-15T05:44:30;99415.34;;;13.34;71.97
4570;BME280;2297;51.442;6.996;2022-10-15T05:46:57;99417.19;;;13.32;71.89
4570;BME280;2297;51.442;6.996;2022-10-15T05:49:24;99421.59;;;13.33;71.70
4570;BME280;2297;51.442;6.996;2022-10-15T05:51:50;99422.56;;;13.11;72.08
4570;BME280;2297;51.442;6.996;2022-10-15T05:54:17;99423.88;;;13.01;72.90
4570;BME280;2297;51.442;6.996;2022-10-15T05:56:43;99419.47;;;13.21;72.56
4570;BME280;2297;51.442;6.996;2022-10-15T05:59:10;99433.94;;;13.13;72.75
4570;BME280;2297;51.442;6.996;2022-10-15T06:01:38;99426.63;;;13.19;72.41
4570;BME280;2297;51.442;6.996;2022-10-15T06:04:05;99424.84;;;13.19;72.35
4570;BME280;2297;51.442;6.996;2022-10-15T06:06:31;99433.94;;;13.13;72.49
4570;BME280;2297;51.442;6.996;2022-10-15T06:08:58;99425.78;;;13.18;72.34
4570;BME280;2297;51.442;6.996;2022-10-15T06:12:03;99427.88;;;13.30;72.05
4570;BME280;2297;51.442;6.996;2022-10-15T06:14:29;99434.34;;;13.25;72.18
4570;BME280;2297;51.442;6.996;2022-10-15T06:16:57;99433.41;;;13.26;72.09
4570;BME280;2297;51.442;6.996;2022-10-15T06:19:25;99428.53;;;13.36;71.84
4570;BME280;2297;51.442;6.996;2022-10-15T06:21:51;99438.97;;;13.20;72.46
4570;BME280;2297;51.442;6.996;2022-10-15T06:24:18;99443.94;;;13.27;71.70
4570;BME280;2297;51.442;6.996;2022-10-15T06:26:44;99442.72;;;13.35;71.85
4570;BME280;2297;51.442;6.996;2022-10-15T06:29:11;99447.03;;;13.37;72.03
4570;BME280;2297;51.442;6.996;2022-10-15T06:31:38;99451.41;;;13.38;71.80
4570;BME280;2297;51.442;6.996;2022-10-15T06:34:06;99450.75;;;13.33;72.19
4570;BME280;2297;51.442;6.996;2022-10-15T06:36:32;99454.97;;;13.37;72.06
4570;BME280;2297;51.442;6.996;2022-10-15T06:38:59;99453.91;;;13.41;71.85
4570;BME280;2297;51.442;6.996;2022-10-15T06:41:25;99454.94;;;13.58;71.20
4570;BME280;2297;51.442;6.996;2022-10-15T06:43:52;99458.22;;;13.63;71.32
4570;BME280;2297;51.442;6.996;2022-10-15T06:46:19;99454.34;;;13.70;70.85
4570;BME280;2297;51.442;6.996;2022-10-15T06:48:45;99449.19;;;13.67;71.05
4570;BME280;2297;51.442;6.996;2022-10-15T06:51:15;99457.47;;;13.78;70.92
4570;BME280;2297;51.442;6.996;2022-10-15T06:53:42;99463.81;;;13.57;71.50
4570;BME280;2297;51.442;6.996;2022-10-15T06:56:08;99455.06;;;13.74;71.33
4570;BME280;2297;51.442;6.996;2022-10-15T06:58:35;99454.91;;;13.77;70.94
4570;BME280;2297;51.442;6.996;2022-10-15T07:01:03;99455.72;;;13.79;71.06
4570;BME280;2297;51.442;6.996;2022-10-15T07:03:31;99460.78;;;13.84;70.91
4570;BME280;2297;51.442;6.996;2022-10-15T07:06:01;99460.50;;;13.71;71.06
4570;BME280;2297;51.442;6.996;2022-10-15T07:08:29;99464.00;;;13.52;71.36
4570;BME280;2297;51.442;6.996;2022-10-15T07:10:56;99459.50;;;13.73;71.07
4570;BME280;2297;51.442;6.996;2022-10-15T07:13:22;99460.13;;;13.78;70.96
4570;BME280;2297;51.442;6.996;2022-10-15T07:15:49;99464.66;;;13.76;71.12
4570;BME280;2297;51.442;6.996;2022-10-15T07:18:18;99459.66;;;13.70;71.46
4570;BME280;2297;51.442;6.996;2022-10-15T07:20:44;99455.56;;;13.63;71.61
4570;BME280;2297;51.442;6.996;2022-10-15T07:23:11;99455.63;;;13.80;71.13
4570;BME280;2297;51.442;6.996;2022-10-15T07:25:39;99459.94;;;13.83;70.96
4570;BME280;2297;51.442;6.996;2022-10-15T07:28:06;99462.91;;;13.94;70.55
4570;BME280;2297;51.442;6.996;2022-10-15T07:30:32;99462.91;;;13.94;70.52
4570;BME280;2297;51.442;6.996;2022-10-15T07:32:59;99465.84;;;14.07;70.00
4570;BME280;2297;51.442;6.996;2022-10-15T07:35:26;99472.50;;;14.16;69.99
4570;BME280;2297;51.442;6.996;2022-10-15T07:37:53;99463.03;;;14.10;69.96
4570;BME280;2297;51.442;6.996;2022-10-15T07:40:20;99462.25;;;14.08;69.97
4570;BME280;2297;51.442;6.996;2022-10-15T07:42:52;99463.19;;;14.07;69.94
4570;BME280;2297;51.442;6.996;2022-10-15T07:45:19;99460.03;;;14.36;69.31
4570;BME280;2297;51.442;6.996;2022-10-15T07:47:46;99461.63;;;14.40;69.04
4570;BME280;2297;51.442;6.996;2022-10-15T07:50:13;99461.03;;;14.33;68.80
4570;BME280;2297;51.442;6.996;2022-10-15T07:52:40;99462.78;;;14.34;68.79
4570;BME280;2297;51.442;6.996;2022-10-15T07:55:07;99462.94;;;14.31;69.10
4570;BME280;2297;51.442;6.996;2022-10-15T07:57:34;99456.38;;;14.38;68.83
4570;BME280;2297;51.442;6.996;2022-10-15T08:00:03;99450.44;;;14.33;68.77
4570;BME280;2297;51.442;6.996;2022-10-15T08:02:31;99452.31;;;14.31;69.10
4570;BME280;2297;51.442;6.996;2022-10-15T08:04:58;99443.88;;;14.40;68.77
4570;BME280;2297;51.442;6.996;2022-10-15T08:07:24;99437.16;;;14.33;69.02
4570;BME280;2297;51.442;6.996;2022-10-15T08:09:51;99441.69;;;14.49;68.69
4570;BME280;2297;51.442;6.996;2022-10-15T08:12:17;99434.34;;;14.54;68.65
4570;BME280;2297;51.442;6.996;2022-10-15T08:14:45;99424.97;;;14.64;68.37
4570;BME280;2297;51.442;6.996;2022-10-15T08:17:13;99422.94;;;14.69;68.30
4570;BME280;2297;51.442;6.996;2022-10-15T08:19:40;99417.44;;;14.72;68.14
4570;BME280;2297;51.442;6.996;2022-10-15T08:22:07;99421.03;;;14.71;68.16
4570;BME280;2297;51.442;6.996;2022-10-15T08:24:33;99418.47;;;14.70;67.95
4570;BME280;2297;51.442;6.996;2022-10-15T08:27:00;99439.19;;;14.63;67.79
4570;BME280;2297;51.442;6.996;2022-10-15T08:29:31;99437.78;;;14.73;67.59
4570;BME280;2297;51.442;6.996;2022-10-15T08:31:58;99450.34;;;14.70;67.47
4570;BME280;2297;51.442;6.996;2022-10-15T08:34:26;99441.16;;;14.77;67.50
4570;BME280;2297;51.442;6.996;2022-10-15T08:36:53;99430.03;;;14.69;67.51
4570;BME280;2297;51.442;6.996;2022-10-15T08:39:19;99432.91;;;14.82;67.17
4570;BME280;2297;51.442;6.996;2022-10-15T08:41:48;99434.16;;;14.92;66.59
4570;BME280;2297;51.442;6.996;2022-10-15T08:44:22;99443.25;;;14.88;66.73
4570;BME280;2297;51.442;6.996;2022-10-15T08:46:53;99441.19;;;14.93;66.22
4570;BME280;2297;51.442;6.996;2022-10-15T08:49:32;99443.50;;;15.17;65.61
4570;BME280;2297;51.442;6.996;2022-10-15T08:52:07;99443.03;;;15.42;65.02
4570;BME280;2297;51.442;6.996;2022-10-15T08:54:38;99446.47;;;15.44;64.40
4570;BME280;2297;51.442;6.996;2022-10-15T08:57:13;99431.78;;;15.21;63.92
4570;BME280;2297;51.442;6.996;2022-10-15T08:59:47;99429.13;;;15.21;63.82
4570;BME280;2297;51.442;6.996;2022-10-15T09:02:20;99418.13;;;15.27;63.54
4570;BME280;2297;51.442;6.996;2022-10-15T09:04:54;99428.75;;;15.27;63.68
4570;BME280;2297;51.442;6.996;2022-10-15T09:07:28;99434.28;;;15.40;62.87
4570;BME280;2297;51.442;6.996;2022-10-15T09:10:00;99427.66;;;15.31;63.34
4570;BME280;2297;51.442;6.996;2022-10-15T09:12:40;99423.88;;;15.35;62.87
4570;BME280;2297;51.442;6.996;2022-10-15T09:15:13;99414.03;;;15.69;62.23
4570;BME280;2297;51.442;6.996;2022-10-15T09:17:42;99412.72;;;15.60;62.58
4570;BME280;2297;51.442;6.996;2022-10-15T09:20:15;99416.78;;;15.52;62.45
4570;BME280;2297;51.442;6.996;2022-10-15T09:22:44;99408.88;;;15.66;62.65
4570;BME280;2297;51.442;6.996;2022-10-15T09:25:16;99408.97;;;15.80;62.23
4570;BME280;2297;51.442;6.996;2022-10-15T09:27:45;99398.91;;;15.86;61.60
4570;BME280;2297;51.442;6.996;2022-10-15T09:30:23;99402.44;;;15.86;61.49
4570;BME280;2297;51.442;6.996;2022-10-15T09:32:55;99404.91;;;15.89;61.33
4570;BME280;2297;51.442;6.996;2022-10-15T09:35:27;99389.81;;;16.06;61.17
4570;BME280;2297;51.442;6.996;2022-10-15T09:38:03;99381.19;;;16.17;60.55
4570;BME280;2297;51.442;6.996;2022-10-15T09:40:49;99387.75;;;15.95;60.38
4570;BME280;2297;51.442;6.996;2022-10-15T09:43:22;99388.44;;;16.29;59.91
4570;BME280;2297;51.442;6.996;2022-10-15T09:45:52;99395.03;;;16.07;60.19
4570;BME280;2297;51.442;6.996;2022-10-15T09:48:19;99387.78;;;16.09;60.10
4570;BME280;2297;51.442;6.996;2022-10-15T09:50:54;99381.69;;;16.23;59.77
4570;BME280;2297;51.442;6.996;2022-10-15T09:53:26;99391.38;;;16.24;59.58
4570;BME280;2297;51.442;6.996;2022-10-15T09:56:03;99387.56;;;16.59;58.69
4570;BME280;2297;51.442;6.996;2022-10-15T09:58:38;99378.41;;;16.63;58.25
4570;BME280;2297;51.442;6.996;2022-10-15T10:01:06;99381.91;;;16.49;58.90
4570;BME280;2297;51.442;6.996;2022-10-15T10:03:34;99387.91;;;16.53;58.92
4570;BME280;2297;51.442;6.996;2022-10-15T10:06:06;99391.69;;;16.04;60.32
4570;BME280;2297;51.442;6.996;2022-10-15T10:08:34;99384.59;;;16.19;60.17
4570;BME280;2297;51.442;6.996;2022-10-15T10:11:08;99371.22;;;16.35;60.05
4570;BME280;2297;51.442;6.996;2022-10-15T10:13:39;99373.25;;;16.60;59.45
4570;BME280;2297;51.442;6.996;2022-10-15T10:16:08;99372.91;;;16.66;59.86
4570;BME280;2297;51.442;6.996;2022-10-15T10:18:35;99365.66;;;16.68;59.76
4570;BME280;2297;51.442;6.996;2022-10-15T10:21:06;99361.38;;;16.66;60.16
4570;BME280;2297;51.442;6.996;2022-10-15T10:23:41;99357.50;;;16.86;59.60
4570;BME280;2297;51.442;6.996;2022-10-15T10:26:09;99359.94;;;16.60;60.21
4570;BME280;2297;51.442;6.996;2022-10-15T10:28:41;99364.22;;;16.77;59.62
4570;BME280;2297;51.442;6.996;2022-10-15T10:31:10;99361.97;;;17.00;59.37
4570;BME280;2297;51.442;6.996;2022-10-15T10:33:44;99355.59;;;16.88;59.66
4570;BME280;2297;51.442;6.996;2022-10-15T10:36:20;99361.31;;;16.96;59.29
4570;BME280;2297;51.442;6.996;2022-10-15T10:38:55;99364.06;;;16.80;59.94
4570;BME280;2297;51.442;6.996;2022-10-15T10:41:47;99354.59;;;16.74;60.95
4570;BME280;2297;51.442;6.996;2022-10-15T10:44:19;99346.66;;;16.89;61.17
4570;BME280;2297;51.442;6.996;2022-10-15T10:47:00;99346.28;;;16.95;61.55
4570;BME280;2297;51.442;6.996;2022-10-15T10:49:32;99343.25;;;16.87;61.48
4570;BME280;2297;51.442;6.996;2022-10-15T10:52:01;99341.16;;;16.92;61.83
4570;BME280;2297;51.442;6.996;2022-10-15T10:54:28;99349.84;;;16.79;62.64
4570;BME280;2297;51.442;6.996;2022-10-15T10:56:55;99339.78;;;16.85;63.41
4570;BME280;2297;51.442;6.996;2022-10-15T10:59:26;99346.81;;;16.71;64.65
4570;BME280;2297;51.442;6.996;2022-10-15T11:01:54;99341.50;;;16.86;64.63
4570;BME280;2297;51.442;6.996;2022-10-15T11:04:24;99342.25;;;17.02;64.56
4570;BME280;2297;51.442;6.996;2022-10-15T11:07:01;99347.03;;;16.83;64.72
4570;BME280;2297;51.442;6.996;2022-10-15T11:09:45;99346.81;;;16.71;65.19
4570;BME280;2297;51.442;6.996;2022-10-15T11:12:27;99343.56;;;16.52;66.00
4570;BME280;2297;51.442;6.996;2022-10-15T11:15:00;99341.22;;;16.76;65.26
4570;BME280;2297;51.442;6.996;2022-10-15T11:17:39;99337.31;;;16.96;64.52
4570;BME280;2297;51.442;6.996;2022-10-15T11:20:16;99348.44;;;16.74;64.98
4570;BME280;2297;51.442;6.996;2022-10-15T11:22:58;99335.81;;;16.92;64.80
4570;BME280;2297;51.442;6.996;2022-10-15T11:25:34;99330.25;;;16.66;65.79
4570;BME280;2297;51.442;6.996;2022-10-15T11:28:13;99330.66;;;16.89;65.13
4570;BME280;2297;51.442;6.996;2022-10-15T11:30:50;99321.84;;;17.16;64.53
4570;BME280;2297;51.442;6.996;2022-10-15T11:33:32;99326.81;;;17.07;64.33
4570;BME280;2297;51.442;6.996;2022-10-15T11:36:20;99319.22;;;17.01;64.40
4570;BME280;2297;51.442;6.996;2022-10-15T11:38:55;99320.72;;;16.76;65.27
4570;BME280;2297;51.442;6.996;2022-10-15T11:41:36;99317.28;;;16.74;65.65
4570;BME280;2297;51.442;6.996;2022-10-15T11:44:36;99311.34;;;16.85;65.55
4570;BME280;2297;51.442;6.996;2022-10-15T11:47:17;99311.25;;;16.87;65.85
4570;BME280;2297;51.442;6.996;2022-10-15T11:49:58;99308.75;;;16.84;66.55
4570;BME280;2297;51.442;6.996;2022-10-15T11:52:44;99307.97;;;17.10;66.08
4570;BME280;2297;51.442;6.996;2022-10-15T11:55:18;99303.59;;;17.09;66.49
4570;BME280;2297;51.442;6.996;2022-10-15T11:57:53;99317.75;;;16.81;67.18
4570;BME280;2297;51.442;6.996;2022-10-15T12:00:30;99314.09;;;16.84;67.01
4570;BME280;2297;51.442;6.996;2022-10-15T12:03:03;99305.50;;;16.64;67.82
4570;BME280;2297;51.442;6.996;2022-10-15T12:05:34;99307.59;;;16.73;67.38
4570;BME280;2297;51.442;6.996;2022-10-15T12:08:04;99300.66;;;16.71;67.50
4570;BME280;2297;51.442;6.996;2022-10-15T12:11:00;99298.63;;;16.60;67.89
4570;BME280;2297;51.442;6.996;2022-10-15T12:13:34;99302.44;;;16.56;68.37
4570;BME280;2297;51.442;6.996;2022-10-15T12:16:13;99297.03;;;16.57;68.61
4570;BME280;2297;51.442;6.996;2022-10-15T12:18:46;99292.25;;;16.62;68.44
4570;BME280;2297;51.442;6.996;2022-10-15T12:21:32;99288.53;;;16.79;67.87
4570;BME280;2297;51.442;6.996;2022-10-15T12:24:00;99284.66;;;16.71;67.71
4570;BME280;2297;51.442;6.996;2022-10-15T12:26:30;99286.66;;;16.67;68.10
4570;BME280;2297;51.442;6.996;2022-10-15T12:28:59;99278.06;;;16.76;67.72
4570;BME280;2297;51.442;6.996;2022-10-15T12:31:42;99277.31;;;16.74;67.79
4570;BME280;2297;51.442;6.996;2022-10-15T12:34:25;99276.94;;;16.66;68.05
4570;BME280;2297;51.442;6.996;2022-10-15T12:36:59;99269.13;;;16.63;68.09
4570;BME280;2297;51.442;6.996;2022-10-15T12:39:27;99268.00;;;16.96;67.19
4570;BME280;2297;51.442;6.996;2022-10-15T12:41:55;99269.09;;;17.06;66.97
4570;BME280;2297;51.442;6.996;2022-10-15T12:44:24;99275.97;;;17.10;66.64
4570;BME280;2297;51.442;6.996;2022-10-15T12:46:52;99272.19;;;16.86;67.25
4570;BME280;2297;51.442;6.996;2022-10-15T12:50:03;99273.50;;;16.93;66.99
4570;BME280;2297;51.442;6.996;2022-10-15T12:52:55;99267.63;;;16.73;67.43
4570;BME280;2297;51.442;6.996;2022-10-15T12:55:25;99269.69;;;16.97;66.97
4570;BME280;2297;51.442;6.996;2022-10-15T12:58:02;99271.59;;;16.95;67.09
4570;BME280;2297;51.442;6.996;2022-10-15T13:00:40;99264.88;;;17.17;66.24
4570;BME280;2297;51.442;6.996;2022-10-15T13:03:13;99268.84;;;17.38;65.61
4570;BME280;2297;51.442;6.996;2022-10-15T13:05:41;99268.00;;;17.51;65.27
4570;BME280;2297;51.442;6.996;2022-10-15T13:08:12;99268.28;;;17.33;65.86
4570;BME280;2297;51.442;6.996;2022-10-15T13:10:46;99267.78;;;17.41;65.62
4570;BME280;2297;51.442;6.996;2022-10-15T13:13:19;99272.44;;;17.37;65.70
4570;BME280;2297;51.442;6.996;2022-10-15T13:15:50;99268.44;;;17.30;66.45
4570;BME280;2297;51.442;6.996;2022-10-15T13:18:20;99285.94;;;17.21;67.14
4570;BME280;2297;51.442;6.996;2022-10-15T13:20:48;99280.09;;;17.29;66.70
4570;BME280;2297;51.442;6.996;2022-10-15T13:23:20;99270.72;;;17.36;66.75
4570;BME280;2297;51.442;6.996;2022-10-15T13:25:47;99264.81;;;17.73;66.16
4570;BME280;2297;51.442;6.996;2022-10-15T13:28:32;99263.78;;;17.61;65.83
4570;BME280;2297;51.442;6.996;2022-10-15T13:31:02;99263.22;;;17.96;64.91
4570;BME280;2297;51.442;6.996;2022-10-15T13:33:30;99264.63;;;18.15;64.13
4570;BME280;2297;51.442;6.996;2022-10-15T13:36:04;99263.88;;;18.38;63.47
4570;BME280;2297;51.442;6.996;2022-10-15T13:38:31;99261.84;;;18.55;62.86
4570;BME280;2297;51.442;6.996;2022-10-15T13:40:59;99267.91;;;18.83;62.04
4570;BME280;2297;51.442;6.996;2022-10-15T13:43:26;99268.75;;;18.96;61.41
4570;BME280;2297;51.442;6.996;2022-10-15T13:45:55;99265.41;;;19.05;61.16
4570;BME280;2297;51.442;6.996;2022-10-15T13:48:24;99262.22;;;19.00;60.94
4570;BME280;2297;51.442;6.996;2022-10-15T13:50:52;99259.72;;;19.10;60.92